Terminal Aerodrome Forecast
Issued by NWS

Home | Current Version | Previous Version | Graphics & Text | Print | Product List | Glossary On
Versions: 1 2 3 4 5 6 7 8 9 10 11 12 13 14 15 16 17 18
000
FTUS43 KBIS 170532
TAFMOT
TAF
KMOT 170532Z 1706/1806 25008KT P6SM SKC
     FM171700 22011KT P6SM SKC
     FM171900 21014G23KT P6SM SKC
     FM172300 20009KT P6SM SCT250
     FM180200 22011G19KT P6SM SCT250=

USA.gov is the U.S. government's official web portal to all federal, state and local government web resources and services.